Time;durP1;ratioP1;P1;durP2;ratioP2;P2;SDS_P1;SDS_P2;PMS_P1;PMS_P2;Temp;Humidity;BMP_temperature;BMP_pressure;BME280_temperature;BME280_humidity;BME280_pressure;Samples;Min_cycle;Max_cycle;Signal;HPM_P1;HPM_P2
2023/09/16 00:23:06;;;;;;;;;;;;;;;;;;;;;
2023/09/16 00:26:01;;;;;;;3.10;2.80;;;;;;;20.36;50.84;99789.94;4893853;29;20100;-84
2023/09/16 01:09:10;;;;;;;7.20;3.20;;;;;;;20.30;51.52;99762.84;4877057;29;20438;-84
2023/09/16 02:21:18;;;;;;;;;;;;;;;;;;;;;
2023/09/16 05:27:32;;;;;;;8.35;3.45;;;;;;;21.25;53.69;99691.06;5231677;23;20110;-78
2023/09/16 05:30:01;;;;;;;4.38;3.95;;;;;;;21.25;53.97;99684.84;4935760;29;20127;-74
2023/09/16 05:32:28;;;;;;;5.95;4.00;;;;;;;21.25;53.71;99684.84;4935379;29;20083;-75
2023/09/16 05:34:55;;;;;;;3.63;3.30;;;;;;;21.24;53.76;99678.69;4935616;29;20066;-75
2023/09/16 05:37:22;;;;;;;4.18;3.60;;;;;;;21.25;53.70;99674.16;4935773;29;20052;-76
2023/09/16 05:39:48;;;;;;;4.07;3.55;;;;;;;21.26;53.88;99679.34;4935977;29;20055;-77
2023/09/16 05:42:15;;;;;;;4.18;3.65;;;;;;;21.28;54.24;99688.06;4935020;29;20052;-75
2023/09/16 05:44:41;;;;;;;5.38;3.40;;;;;;;21.29;53.63;99683.53;4935789;29;20717;-75
2023/09/16 05:47:08;;;;;;;3.80;3.45;;;;;;;21.31;53.79;99684.22;4935648;29;20511;-76
2023/09/16 05:49:35;;;;;;;3.30;3.00;;;;;;;21.33;54.14;99682.22;4935692;29;20058;-77
2023/09/16 05:52:01;;;;;;;4.25;3.40;;;;;;;21.32;53.83;99678.72;4934961;29;20043;-75
2023/09/16 05:54:28;;;;;;;5.65;3.55;;;;;;;21.35;53.93;99685.59;4935273;29;20051;-76
2023/09/16 05:56:54;;;;;;;4.05;3.03;;;;;;;21.34;53.90;99679.38;4935586;29;20079;-75
2023/09/16 05:59:21;;;;;;;5.13;3.58;;;;;;;21.36;53.99;99679.22;4934134;29;20127;-78
2023/09/16 06:01:50;;;;;;;4.03;3.63;;;;;;;21.37;54.20;99683.59;4934822;29;20401;-75
2023/09/16 06:04:17;;;;;;;5.30;3.53;;;;;;;21.38;54.28;99673.72;4935012;29;20587;-76
2023/09/16 06:06:43;;;;;;;4.50;3.20;;;;;;;21.38;54.13;99679.91;4935233;29;20471;-77
2023/09/16 06:09:10;;;;;;;4.15;2.95;;;;;;;21.41;54.08;99678.75;4935404;29;20468;-76
2023/09/16 06:11:36;;;;;;;3.33;2.78;;;;;;;21.42;54.04;99675.09;4934982;29;20095;-74
2023/09/16 06:14:05;;;;;;;3.85;3.45;;;;;;;21.44;54.03;99670.38;4934799;29;20043;-75
2023/09/16 06:16:32;;;;;;;4.32;3.20;;;;;;;21.45;54.21;99678.25;4934101;29;20052;-75
2023/09/16 06:18:59;;;;;;;3.45;2.97;;;;;;;21.47;53.94;99686.16;4935001;29;20138;-77
2023/09/16 06:21:26;;;;;;;3.80;3.40;;;;;;;21.47;54.00;99678.97;4934886;29;20548;-75
2023/09/16 06:23:52;;;;;;;4.10;3.08;;;;;;;21.47;54.21;99678.97;4934676;29;20099;-76
2023/09/16 06:26:19;;;;;;;3.40;3.10;;;;;;;21.48;54.12;99677.94;4933619;29;20192;-76
2023/09/16 06:28:45;;;;;;;4.80;3.35;;;;;;;21.47;53.86;99683.47;4934656;29;20497;-77
2023/09/16 06:31:12;;;;;;;4.20;3.17;;;;;;;21.46;53.95;99689.81;4933705;29;20047;-75
2023/09/16 06:33:39;;;;;;;4.65;3.70;;;;;;;21.43;54.27;99682.09;4934000;29;20052;-75
2023/09/16 06:36:05;;;;;;;3.83;3.42;;;;;;;21.40;54.36;99683.28;4935067;29;20055;-76
2023/09/16 06:38:32;;;;;;;5.53;3.08;;;;;;;21.38;54.16;99682.56;4934007;29;20496;-78
2023/09/16 06:40:59;;;;;;;5.00;3.35;;;;;;;21.36;54.15;99676.56;4934029;29;20580;-77
2023/09/16 06:43:25;;;;;;;3.80;3.33;;;;;;;21.34;54.12;99674.03;4933047;29;20111;-77
2023/09/16 06:45:52;;;;;;;3.78;3.40;;;;;;;21.34;54.42;99675.88;4933940;29;20078;-76
2023/09/16 06:48:18;;;;;;;4.32;3.33;;;;;;;21.33;54.58;99676.88;4934195;29;20099;-78
2023/09/16 06:50:45;;;;;;;4.32;3.42;;;;;;;21.32;54.79;99676.03;4933973;29;20130;-77
2023/09/16 06:53:11;;;;;;;4.70;3.08;;;;;;;21.33;54.91;99671.50;4933643;29;20460;-76
2023/09/16 06:55:38;;;;;;;4.35;3.22;;;;;;;21.34;54.80;99678.53;4933654;29;20138;-75
2023/09/16 06:58:06;;;;;;;3.75;3.35;;;;;;;21.35;54.84;99690.94;4933923;29;20051;-77
2023/09/16 07:00:36;;;;;;;4.15;3.30;;;;;;;21.34;55.19;99687.41;4933865;29;20532;-75
2023/09/16 07:03:03;;;;;;;5.43;3.33;;;;;;;21.38;55.10;99684.44;4933367;29;20767;-75
2023/09/16 07:05:30;;;;;;;4.43;3.20;;;;;;;21.41;55.18;99684.13;4933422;29;20062;-78
2023/09/16 07:07:58;;;;;;;4.60;3.47;;;;;;;21.43;55.09;99682.09;4933865;29;20134;-77
2023/09/16 07:10:25;;;;;;;3.83;3.30;;;;;;;21.45;54.80;99686.31;4934007;29;20659;-75
2023/09/16 07:12:52;;;;;;;6.63;3.70;;;;;;;21.47;54.47;99684.31;4933443;29;20055;-80
2023/09/16 07:15:20;;;;;;;3.83;3.13;;;;;;;21.49;54.67;99684.13;4933189;29;20134;-76
2023/09/16 07:17:47;;;;;;;7.93;4.97;;;;;;;21.52;54.77;99691.03;4933794;29;20056;-77
2023/09/16 07:20:13;;;;;;;5.63;3.97;;;;;;;21.55;54.99;99690.69;4933814;29;20091;-76
2023/09/16 07:22:40;;;;;;;4.53;3.40;;;;;;;21.57;54.82;99696.75;4933255;29;20044;-74
2023/09/16 07:25:07;;;;;;;3.50;3.20;;;;;;;21.59;54.96;99692.03;4933237;29;20115;-75
2023/09/16 07:27:33;;;;;;;4.18;3.30;;;;;;;21.62;54.80;99691.72;4933480;29;20103;-76
2023/09/16 07:30:01;;;;;;;4.03;3.33;;;;;;;21.63;54.71;99693.41;4933495;29;20048;-75
2023/09/16 07:32:28;;;;;;;5.00;3.13;;;;;;;21.65;54.87;99691.41;4933405;29;20139;-76
2023/09/16 07:34:55;;;;;;;4.03;3.28;;;;;;;21.69;55.03;99689.25;4933286;29;20051;-75
2023/09/16 07:37:21;;;;;;;4.35;3.08;;;;;;;21.72;55.00;99696.97;4932267;29;20107;-78
2023/09/16 07:39:50;;;;;;;4.45;3.38;;;;;;;21.74;54.62;99690.47;4933497;29;20206;-76
2023/09/16 07:42:17;;;;;;;4.47;3.30;;;;;;;21.80;54.78;99694.34;4933106;29;20544;-75
2023/09/16 07:44:44;;;;;;;5.53;3.47;;;;;;;21.84;54.43;99689.50;4931853;29;20086;-78
2023/09/16 07:47:11;;;;;;;3.65;3.33;;;;;;;21.89;54.31;99694.34;4933554;29;20043;-76
2023/09/16 07:49:37;;;;;;;4.63;3.42;;;;;;;21.94;54.12;99697.41;4933557;29;20497;-75
2023/09/16 07:52:04;;;;;;;5.15;3.42;;;;;;;21.98;54.33;99699.56;4933352;29;20157;-80
2023/09/16 07:54:31;;;;;;;4.22;3.10;;;;;;;22.02;53.92;99696.56;4933420;29;20047;-78
2023/09/16 07:56:57;;;;;;;4.78;3.80;;;;;;;22.05;54.01;99701.63;4936825;29;20106;-75
2023/09/16 07:59:24;;;;;;;4.60;3.47;;;;;;;22.08;53.80;99694.06;4937212;29;20123;-78
2023/09/16 08:01:50;;;;;;;3.53;3.22;;;;;;;22.12;54.54;99695.41;4936996;29;20063;-78
2023/09/16 08:04:17;;;;;;;5.70;3.53;;;;;;;22.16;54.06;99697.78;4936514;29;20048;-79
2023/09/16 08:06:44;;;;;;;4.97;3.50;;;;;;;22.18;53.81;99698.44;4936761;29;20059;-78
2023/09/16 08:09:10;;;;;;;5.00;3.42;;;;;;;22.20;54.13;99702.63;4936885;29;20051;-79
2023/09/16 08:11:37;;;;;;;3.85;3.40;;;;;;;22.23;53.99;99696.94;4936579;29;20048;-78
2023/09/16 08:14:03;;;;;;;4.65;3.47;;;;;;;22.26;53.95;99693.09;4936775;29;20500;-80
2023/09/16 08:16:30;;;;;;;4.28;3.33;;;;;;;22.29;53.83;99699.97;4936449;29;20123;-78
2023/09/16 08:18:57;;;;;;;3.88;3.33;;;;;;;22.32;53.56;99705.00;4936649;29;20559;-78
2023/09/16 08:21:24;;;;;;;3.80;3.40;;;;;;;22.35;53.75;99700.13;4936672;29;20055;-77
2023/09/16 08:23:51;;;;;;;4.03;2.97;;;;;;;22.38;53.72;99698.97;4936373;29;20051;-79
2023/09/16 08:26:17;;;;;;;3.58;3.10;;;;;;;22.41;53.74;99698.63;4934839;29;20047;-77
2023/09/16 08:28:44;;;;;;;4.28;3.20;;;;;;;22.48;54.02;99706.84;4936701;29;20135;-77
2023/09/16 08:31:10;;;;;;;3.63;3.03;;;;;;;22.52;53.82;99705.50;4936420;29;20721;-78
2023/09/16 08:33:37;;;;;;;5.75;3.30;;;;;;;22.58;53.70;99712.91;4936317;29;20051;-80
2023/09/16 08:36:03;;;;;;;8.23;3.33;;;;;;;22.61;53.31;99699.16;4936168;29;20083;-79
2023/09/16 08:38:30;;;;;;;4.22;3.22;;;;;;;22.66;53.43;99706.72;4935932;29;20055;-79
2023/09/16 08:41:39;;;;;;;6.38;3.30;;;;;;;22.68;53.65;99710.06;4936130;29;20130;-79
2023/09/16 08:44:08;;;;;;;4.88;3.10;;;;;;;22.78;53.44;99705.38;4935762;29;20099;-82
2023/09/16 08:46:43;;;;;;;3.47;3.10;;;;;;;22.85;53.50;99710.06;4935962;29;20051;-77
2023/09/16 08:49:13;;;;;;;7.40;3.15;;;;;;;22.89;53.40;99709.56;4936044;29;20087;-80
2023/09/16 08:51:43;;;;;;;3.10;2.80;;;;;;;22.95;53.93;99718.75;4936151;29;20059;-78
2023/09/16 08:54:11;;;;;;;3.63;3.03;;;;;;;23.02;53.43;99722.44;4935790;29;20059;-75
2023/09/16 08:56:42;;;;;;;6.22;3.20;;;;;;;23.09;53.10;99727.13;4935747;29;20568;-76
2023/09/16 08:59:09;;;;;;;5.70;2.97;;;;;;;23.16;53.28;99718.25;4935596;29;20055;-78
2023/09/16 09:01:36;;;;;;;4.22;3.17;;;;;;;23.22;53.28;99719.41;4935705;29;20134;-75
2023/09/16 09:04:03;;;;;;;3.70;3.22;;;;;;;23.28;53.28;99718.72;4934279;29;20052;-78
2023/09/16 09:06:31;;;;;;;3.35;3.05;;;;;;;23.34;53.36;99719.06;4935563;29;20044;-76
2023/09/16 09:09:06;;;;;;;3.88;3.47;;;;;;;23.41;52.91;99712.00;4935568;29;20047;-75
2023/09/16 09:11:33;;;;;;;4.80;3.40;;;;;;;23.47;52.87;99713.97;4935446;29;20131;-76
2023/09/16 09:14:01;;;;;;;5.43;3.08;;;;;;;23.53;53.23;99712.44;4935472;29;20059;-77
2023/09/16 09:16:28;;;;;;;5.55;3.85;;;;;;;23.59;53.16;99718.97;4934637;29;20059;-75
2023/09/16 09:18:59;;;;;;;4.43;3.17;;;;;;;23.63;53.20;99715.75;4934376;29;20044;-75
2023/09/16 09:21:25;;;;;;;5.65;3.70;;;;;;;23.73;52.97;99720.09;4935366;29;20055;-75
2023/09/16 09:23:52;;;;;;;3.63;2.85;;;;;;;23.79;52.71;99720.25;4935281;29;20397;-77
2023/09/16 09:26:19;;;;;;;3.50;3.20;;;;;;;23.86;52.70;99722.22;4935291;29;20596;-76
2023/09/16 09:28:46;;;;;;;3.40;3.00;;;;;;;23.93;53.34;99712.44;4935525;29;20119;-76
2023/09/16 09:31:14;;;;;;;3.58;3.17;;;;;;;24.01;53.33;99728.53;4935057;29;20051;-76
2023/09/16 09:33:41;;;;;;;4.03;3.13;;;;;;;24.07;52.94;99719.75;4935146;29;20058;-79
2023/09/16 09:36:12;;;;;;;4.25;3.25;;;;;;;24.17;52.61;99724.94;4935407;29;20060;-75
2023/09/16 09:38:46;;;;;;;5.03;3.45;;;;;;;24.24;52.10;99726.91;4935342;29;20138;-76
2023/09/16 09:41:13;;;;;;;3.67;3.13;;;;;;;24.34;52.49;99712.19;4933410;29;20139;-78
2023/09/16 09:43:40;;;;;;;4.25;2.97;;;;;;;24.43;52.38;99714.84;4934824;29;20485;-75
2023/09/16 09:46:07;;;;;;;3.55;3.25;;;;;;;24.51;51.80;99714.78;4934945;29;20052;-75
2023/09/16 09:48:36;;;;;;;5.32;3.30;;;;;;;24.58;52.30;99715.75;4933848;29;20055;-77
2023/09/16 09:51:06;;;;;;;3.95;3.08;;;;;;;24.66;51.77;99717.50;4934782;29;20079;-75
2023/09/16 09:53:34;;;;;;;4.47;3.33;;;;;;;24.73;51.73;99718.47;4934666;29;20092;-75
2023/09/16 09:56:00;;;;;;;3.10;2.75;;;;;;;24.82;52.16;99713.00;4934779;29;20094;-77
2023/09/16 09:58:27;;;;;;;4.35;3.30;;;;;;;24.91;51.91;99724.56;4934979;29;20154;-76
2023/09/16 10:00:53;;;;;;;3.85;3.20;;;;;;;25.01;52.28;99719.78;4934610;29;20083;-76
2023/09/16 10:03:22;;;;;;;3.53;3.17;;;;;;;25.10;52.37;99715.13;4934604;29;20055;-76
2023/09/16 10:05:50;;;;;;;4.63;3.60;;;;;;;25.21;52.20;99717.38;4934609;29;20427;-75
2023/09/16 10:08:17;;;;;;;3.72;3.22;;;;;;;25.32;52.42;99709.84;4933359;29;20058;-75
2023/09/16 10:10:46;;;;;;;4.35;3.15;;;;;;;25.44;52.24;99710.19;4934770;29;20051;-77
2023/09/16 10:13:12;;;;;;;3.78;3.35;;;;;;;25.57;52.90;99707.72;4934088;29;20048;-77
2023/09/16 10:15:39;;;;;;;3.85;3.13;;;;;;;25.70;52.91;99712.44;4934597;29;20055;-75
2023/09/16 10:18:07;;;;;;;5.30;3.33;;;;;;;25.86;52.12;99707.84;4933825;29;20055;-78
2023/09/16 10:20:39;;;;;;;3.40;3.10;;;;;;;25.99;50.76;99712.56;4934411;29;20060;-76
2023/09/16 10:23:06;;;;;;;3.47;3.17;;;;;;;26.17;51.36;99709.47;4933965;29;20059;-77
2023/09/16 10:25:34;;;;;;;3.42;3.00;;;;;;;26.32;51.20;99716.69;4934301;29;20056;-76
2023/09/16 10:28:07;;;;;;;3.88;3.17;;;;;;;26.49;51.02;99712.69;4934643;29;20059;-75
2023/09/16 10:30:36;;;;;;;3.40;2.83;;;;;;;26.66;50.62;99712.44;4934333;29;20054;-77
2023/09/16 10:33:05;;;;;;;3.25;2.60;;;;;;;26.80;49.95;99716.06;4933511;29;20416;-78
2023/09/16 10:35:34;;;;;;;3.85;2.80;;;;;;;26.96;50.34;99712.28;4934079;29;20067;-77
2023/09/16 10:38:02;;;;;;;4.32;2.90;;;;;;;27.11;49.65;99704.06;4934007;29;20493;-78
2023/09/16 10:40:30;;;;;;;3.13;2.47;;;;;;;27.23;49.15;99704.34;4932783;29;20123;-75
2023/09/16 10:42:57;;;;;;;3.50;2.60;;;;;;;27.35;49.86;99706.50;4933526;29;20044;-75
2023/09/16 10:45:25;;;;;;;3.38;2.90;;;;;;;27.49;49.27;99710.91;4932568;29;20048;-78
2023/09/16 10:47:53;;;;;;;2.75;2.35;;;;;;;27.60;49.22;99696.00;4932498;29;20564;-75
2023/09/16 10:50:25;;;;;;;3.03;2.83;;;;;;;27.72;51.56;99706.28;4929634;29;20056;-75
2023/09/16 10:53:05;;;;;;;3.40;2.60;;;;;;;27.87;49.00;99703.38;4916331;29;20549;-79
2023/09/16 10:55:40;;;;;;;3.97;2.72;;;;;;;28.00;48.44;99710.72;4933940;29;20106;-76
2023/09/16 10:58:18;;;;;;;4.47;2.40;;;;;;;28.12;48.28;99700.97;4933807;29;20484;-75
2023/09/16 11:00:53;;;;;;;5.15;2.70;;;;;;;28.28;48.95;99707.91;4932594;29;20052;-76
2023/09/16 11:03:27;;;;;;;2.85;2.58;;;;;;;28.51;48.49;99708.56;4933556;29;20107;-79
2023/09/16 11:05:54;;;;;;;2.78;2.10;;;;;;;28.75;49.31;99701.69;4933876;29;20055;-77
2023/09/16 11:08:21;;;;;;;4.03;2.53;;;;;;;29.06;49.15;99702.91;4933690;29;20051;-75
2023/09/16 11:10:48;;;;;;;2.58;2.28;;;;;;;29.52;49.88;99697.59;4933280;29;20055;-76
2023/09/16 11:13:15;;;;;;;2.35;2.15;;;;;;;30.07;48.40;99700.88;4933672;29;20060;-78
2023/09/16 11:15:42;;;;;;;3.38;2.30;;;;;;;30.69;47.12;99702.97;4933971;29;20055;-76
2023/09/16 11:18:09;;;;;;;5.03;2.42;;;;;;;31.37;45.28;99705.06;4933791;29;20048;-75
2023/09/16 11:20:37;;;;;;;2.88;2.58;;;;;;;32.06;45.97;99699.38;4933382;29;20119;-78
2023/09/16 11:23:05;;;;;;;2.58;2.38;;;;;;;32.76;44.42;99691.59;4933144;29;20063;-76
2023/09/16 11:25:41;;;;;;;3.03;2.30;;;;;;;33.44;43.97;99678.63;4933463;29;20110;-77
2023/09/16 11:28:09;;;;;;;7.32;2.42;;;;;;;34.10;42.73;99683.72;4933679;29;20047;-77
2023/09/16 11:30:37;;;;;;;2.55;2.28;;;;;;;34.68;41.18;99680.03;4937165;29;20445;-78
2023/09/16 11:33:04;;;;;;;2.20;2.00;;;;;;;35.24;40.81;99684.66;4936321;29;20048;-76
2023/09/16 11:35:31;;;;;;;2.10;1.90;;;;;;;35.76;39.93;99677.06;4937265;29;20091;-77
2023/09/16 11:37:58;;;;;;;2.45;2.20;;;;;;;36.24;38.92;99680.00;4937257;29;20052;-77
2023/09/16 11:40:34;;;;;;;4.45;2.38;;;;;;;36.68;35.64;99669.94;4937488;29;20115;-79
2023/09/16 11:43:01;;;;;;;3.50;2.00;;;;;;;37.12;36.29;99676.19;4936588;29;20103;-78
2023/09/16 11:45:28;;;;;;;1.90;1.80;;;;;;;37.49;36.77;99675.28;4937294;29;20086;-78
2023/09/16 11:47:55;;;;;;;2.10;1.90;;;;;;;37.84;35.66;99669.31;4937278;29;20083;-79
2023/09/16 11:50:23;;;;;;;2.20;2.00;;;;;;;38.17;35.27;99672.69;4937037;29;20051;-77
2023/09/16 11:52:51;;;;;;;2.67;2.08;;;;;;;38.46;34.30;99666.63;4936720;29;20048;-76
2023/09/16 11:55:18;;;;;;;3.05;1.75;;;;;;;38.74;33.54;99661.63;4936969;29;20107;-79
2023/09/16 11:57:48;;;;;;;2.25;2.05;;;;;;;38.98;32.49;99661.03;4937335;29;20055;-75
2023/09/16 12:00:16;;;;;;;2.47;1.77;;;;;;;39.23;32.37;99656.53;4937016;29;20394;-76
2023/09/16 12:02:43;;;;;;;2.15;1.95;;;;;;;39.44;31.14;99654.50;4936407;29;20044;-78
2023/09/16 12:05:11;;;;;;;3.28;1.95;;;;;;;39.64;31.88;99661.00;4936886;29;20066;-77
2023/09/16 12:07:37;;;;;;;2.30;1.85;;;;;;;39.83;32.83;99650.13;4936848;29;20135;-78
2023/09/16 12:10:06;;;;;;;1.80;1.70;;;;;;;40.00;30.54;99644.28;4936901;29;20063;-79
2023/09/16 12:12:32;;;;;;;2.50;2.08;;;;;;;40.20;31.27;99647.94;4936581;29;20055;-79
2023/09/16 12:15:00;;;;;;;2.65;2.00;;;;;;;40.35;30.36;99633.19;4936353;29;20087;-78
2023/09/16 12:17:27;;;;;;;1.70;1.60;;;;;;;40.55;29.98;99628.63;4936669;29;20048;-78
2023/09/16 12:19:56;;;;;;;6.30;1.90;;;;;;;40.71;29.95;99628.44;4936896;29;20173;-77
2023/09/16 12:22:23;;;;;;;2.15;1.92;;;;;;;40.88;29.51;99623.28;4934790;29;20131;-80
2023/09/16 12:24:57;;;;;;;2.10;1.90;;;;;;;41.00;28.84;99627.56;4936532;29;20056;-76
2023/09/16 12:27:25;;;;;;;1.67;1.58;;;;;;;41.15;28.77;99618.25;4936208;29;20067;-79
2023/09/16 12:29:51;;;;;;;1.85;1.75;;;;;;;41.25;28.60;99620.06;4936495;29;20143;-78
2023/09/16 12:32:21;;;;;;;2.15;1.73;;;;;;;41.33;28.42;99613.88;4936136;29;20068;-76
2023/09/16 12:35:09;;;;;;;3.83;1.95;;;;;;;41.33;29.51;99613.88;4935892;29;20063;-79
2023/09/16 12:37:35;;;;;;;2.20;1.92;;;;;;;41.41;27.45;99627.00;4936461;29;20119;-78
2023/09/16 12:40:03;;;;;;;1.85;1.73;;;;;;;41.39;26.92;99618.22;4936031;29;20048;-78
2023/09/16 12:42:29;;;;;;;1.80;1.70;;;;;;;41.41;28.11;99621.50;4935295;29;20054;-77
2023/09/16 12:44:59;;;;;;;2.15;1.98;;;;;;;41.42;27.64;99623.16;4935997;29;20051;-79
2023/09/16 12:47:26;;;;;;;1.80;1.70;;;;;;;41.44;28.00;99617.31;4936252;29;20055;-77
2023/09/16 12:49:54;;;;;;;3.13;1.90;;;;;;;41.42;27.27;99623.16;4934928;29;20058;-77
2023/09/16 12:52:20;;;;;;;2.05;1.58;;;;;;;41.41;27.27;99621.50;4935612;29;20063;-77
2023/09/16 12:54:48;;;;;;;2.55;2.00;;;;;;;41.46;27.32;99620.59;4935772;29;20130;-77
2023/09/16 12:57:15;;;;;;;1.98;1.88;;;;;;;41.52;26.85;99615.84;4936262;29;20063;-76
2023/09/16 13:00:03;;;;;;;2.72;1.77;;;;;;;41.49;27.71;99617.25;4935904;29;20060;-78
2023/09/16 13:02:35;;;;;;;2.30;1.73;;;;;;;41.62;26.93;99618.44;4935681;29;20054;-79
2023/09/16 13:05:19;;;;;;;3.35;1.90;;;;;;;41.61;27.06;99614.03;4933725;29;20189;-79
2023/09/16 13:07:49;;;;;;;1.83;1.73;;;;;;;41.72;27.52;99608.31;4936028;29;20062;-81
2023/09/16 13:10:19;;;;;;;2.78;1.92;;;;;;;41.81;26.10;99607.38;4935993;29;20108;-80
2023/09/16 13:12:50;;;;;;;2.58;2.13;;;;;;;41.90;26.01;99609.44;4935586;29;20110;-78
2023/09/16 13:15:22;;;;;;;2.53;1.92;;;;;;;42.00;25.69;99609.25;4935332;29;20047;-76
2023/09/16 13:17:59;;;;;;;2.22;1.60;;;;;;;42.07;25.27;99606.09;4934376;29;20482;-81
2023/09/16 13:20:42;;;;;;;2.03;1.83;;;;;;;42.06;26.66;99608.06;4934375;29;20142;-77
2023/09/16 13:23:24;;;;;;;2.40;1.90;;;;;;;42.09;25.24;99605.81;4935450;29;20054;-77
2023/09/16 13:25:55;;;;;;;;;;;;;;;42.11;28.08;99603.56;4935579;29;20477;-79
2023/09/16 13:28:24;;;;;;;2.25;1.80;;;;;;;42.26;25.99;99603.31;4935781;29;19926;-77
2023/09/16 13:30:55;;;;;;;2.70;2.13;;;;;;;42.30;25.58;99598.81;4934314;29;20163;-76
2023/09/16 13:33:45;;;;;;;2.60;1.70;;;;;;;42.26;26.20;99600.53;4935246;29;20056;-77
2023/09/16 13:36:12;;;;;;;1.92;1.83;;;;;;;42.36;24.97;99604.22;4935264;29;20102;-77
2023/09/16 13:38:38;;;;;;;1.80;1.70;;;;;;;42.33;24.50;99602.91;4935796;29;20103;-76
2023/09/16 13:41:05;;;;;;;2.65;2.00;;;;;;;42.28;24.77;99601.06;4935916;29;20044;-77
2023/09/16 13:43:32;;;;;;;2.85;1.80;;;;;;;42.25;24.87;99604.44;4935754;29;20060;-76
2023/09/16 13:45:58;;;;;;;1.95;1.75;;;;;;;42.24;24.47;99601.97;4935412;29;20074;-77
2023/09/16 13:48:25;;;;;;;3.53;2.40;;;;;;;42.25;25.29;99600.84;4935337;29;20056;-76
2023/09/16 13:50:53;;;;;;;1.77;1.67;;;;;;;42.20;25.02;99601.78;4935068;29;20135;-76
2023/09/16 13:53:23;;;;;;;3.03;2.00;;;;;;;42.15;24.14;99601.84;4933699;29;20051;-76
2023/09/16 13:55:55;;;;;;;1.90;1.80;;;;;;;42.05;24.63;99602.84;4934563;29;20087;-77
2023/09/16 13:58:24;;;;;;;2.35;2.00;;;;;;;41.96;25.21;99607.44;4934825;29;20086;-76
2023/09/16 14:00:51;;;;;;;2.63;2.00;;;;;;;41.82;24.06;99599.91;4934672;29;20223;-77
2023/09/16 14:03:17;;;;;;;2.08;1.88;;;;;;;41.66;23.91;99596.53;4934504;29;20055;-78
2023/09/16 14:05:47;;;;;;;1.92;1.77;;;;;;;41.49;25.33;99599.84;4934583;29;20074;-77
2023/09/16 14:08:13;;;;;;;1.95;1.85;;;;;;;41.32;24.16;99595.66;4934868;29;20131;-76
2023/09/16 14:10:40;;;;;;;3.08;2.05;;;;;;;41.16;24.51;99595.88;4934494;29;20062;-78
2023/09/16 14:13:07;;;;;;;2.38;2.00;;;;;;;41.02;24.53;99592.19;4934267;29;20087;-78
2023/09/16 14:15:35;;;;;;;3.92;2.15;;;;;;;40.89;24.32;99597.31;4933643;29;20070;-76
2023/09/16 14:18:05;;;;;;;3.65;2.03;;;;;;;40.78;25.18;99595.78;4934429;29;20489;-77
2023/09/16 14:20:33;;;;;;;2.35;2.10;;;;;;;40.70;26.64;99594.50;4932867;29;20056;-76
2023/09/16 14:23:01;;;;;;;3.30;2.10;;;;;;;40.68;26.26;99596.72;4934370;29;20071;-76
2023/09/16 14:25:31;;;;;;;2.45;2.25;;;;;;;40.69;26.63;99592.84;4934758;29;20408;-76
2023/09/16 14:27:58;;;;;;;1.98;1.88;;;;;;;40.76;26.43;99592.50;4934376;29;20512;-76
2023/09/16 14:30:24;;;;;;;2.28;1.92;;;;;;;40.84;26.58;99594.59;4934303;29;20119;-76
2023/09/16 14:32:51;;;;;;;2.00;1.80;;;;;;;40.87;25.19;99593.22;4933488;29;20134;-77
2023/09/16 14:35:17;;;;;;;1.85;1.60;;;;;;;40.81;25.39;99597.97;4934394;29;20051;-78
2023/09/16 14:37:45;;;;;;;2.13;1.92;;;;;;;40.69;25.55;99597.56;4934344;29;20142;-76
2023/09/16 14:40:12;;;;;;;2.75;2.30;;;;;;;40.55;24.62;99594.69;4934179;29;20095;-78
2023/09/16 14:42:40;;;;;;;2.83;1.88;;;;;;;40.29;24.33;99587.50;4933495;29;20567;-76
2023/09/16 14:45:07;;;;;;;2.10;1.92;;;;;;;39.97;24.48;99595.22;4934099;29;20099;-76
2023/09/16 14:47:34;;;;;;;2.90;1.98;;;;;;;39.58;25.19;99601.56;4933891;29;20109;-79
2023/09/16 14:50:01;;;;;;;2.25;1.95;;;;;;;39.18;25.52;99607.00;4934211;29;20269;-75
2023/09/16 14:52:29;;;;;;;2.10;1.90;;;;;;;38.74;26.09;99595.63;4933439;29;20052;-79
2023/09/16 14:54:57;;;;;;;2.28;2.10;;;;;;;38.35;26.40;99604.50;4933867;29;20052;-79
2023/09/16 14:57:24;;;;;;;2.72;2.40;;;;;;;37.94;26.71;99606.16;4933964;29;20094;-76
2023/09/16 14:59:50;;;;;;;2.35;2.15;;;;;;;37.57;27.45;99597.03;4933831;29;20150;-78
2023/09/16 15:02:18;;;;;;;4.45;2.58;;;;;;;37.27;27.58;99599.47;4933430;29;20056;-76
2023/09/16 15:04:46;;;;;;;3.65;2.40;;;;;;;37.03;28.15;99602.63;4933358;29;20051;-76
2023/09/16 15:07:12;;;;;;;2.20;1.85;;;;;;;36.83;28.03;99610.78;4933808;29;20048;-77
2023/09/16 15:09:39;;;;;;;2.88;2.25;;;;;;;36.65;29.20;99604.66;4933747;29;20114;-78
2023/09/16 15:12:06;;;;;;;3.20;2.00;;;;;;;36.55;28.72;99605.38;4933519;29;20110;-76
2023/09/16 15:14:34;;;;;;;2.67;2.47;;;;;;;36.49;29.02;99606.44;4933318;29;20110;-77
2023/09/16 15:17:00;;;;;;;3.65;2.10;;;;;;;36.39;29.04;99598.97;4933611;29;20146;-76
2023/09/16 15:19:27;;;;;;;3.17;2.30;;;;;;;36.27;29.23;99612.06;4933870;29;20461;-75
2023/09/16 15:21:54;;;;;;;2.33;2.13;;;;;;;36.09;29.81;99605.88;4933555;29;20780;-76
2023/09/16 15:24:20;;;;;;;3.33;2.35;;;;;;;35.89;29.55;99603.78;4933168;29;20063;-78
2023/09/16 15:26:47;;;;;;;2.85;2.60;;;;;;;35.67;29.76;99602.78;4933512;29;20052;-77
2023/09/16 15:29:13;;;;;;;2.55;2.20;;;;;;;35.50;30.40;99607.50;4933813;29;20079;-75
2023/09/16 15:31:40;;;;;;;2.75;2.55;;;;;;;35.32;30.31;99615.78;4933373;29;20055;-77
2023/09/16 15:34:06;;;;;;;2.50;2.30;;;;;;;35.17;31.22;99610.16;4932874;29;20056;-79
2023/09/16 15:36:33;;;;;;;2.70;2.50;;;;;;;35.01;31.21;99606.38;4933613;29;20048;-76
2023/09/16 15:39:00;;;;;;;2.50;2.30;;;;;;;34.83;31.48;99609.16;4933503;29;20055;-76
2023/09/16 15:41:27;;;;;;;3.58;2.47;;;;;;;34.67;31.05;99604.56;4933386;29;20047;-77
2023/09/16 15:43:53;;;;;;;2.95;2.50;;;;;;;34.52;31.98;99610.59;4932914;29;20048;-78
2023/09/16 15:46:20;;;;;;;2.53;2.33;;;;;;;34.34;31.62;99604.34;4932212;29;20051;-78
2023/09/16 15:48:46;;;;;;;5.13;2.50;;;;;;;34.20;31.66;99605.75;4933375;29;20065;-76
2023/09/16 15:51:14;;;;;;;4.07;2.53;;;;;;;34.03;32.65;99601.09;4933454;29;20048;-76
2023/09/16 15:53:40;;;;;;;3.22;2.25;;;;;;;33.88;32.74;99607.13;4932964;29;20472;-79
2023/09/16 15:56:08;;;;;;;3.83;2.40;;;;;;;33.70;33.08;99600.00;4933319;29;20500;-78
2023/09/16 15:58:35;;;;;;;2.47;2.28;;;;;;;33.53;33.61;99603.50;4933482;29;20100;-76
2023/09/16 16:01:01;;;;;;;2.88;2.60;;;;;;;33.35;33.16;99607.22;4933246;29;20051;-77
2023/09/16 16:03:28;;;;;;;2.78;2.53;;;;;;;33.19;33.96;99606.09;4933199;29;20056;-76
2023/09/16 16:05:56;;;;;;;3.70;2.50;;;;;;;33.03;34.24;99603.06;4933272;29;20055;-78
2023/09/16 16:08:22;;;;;;;2.85;2.65;;;;;;;32.88;35.22;99607.09;4933101;29;20063;-77
2023/09/16 16:10:49;;;;;;;3.63;2.47;;;;;;;32.73;36.02;99606.75;4933265;29;20511;-78
2023/09/16 16:13:20;;;;;;;6.15;2.60;;;;;;;32.56;35.84;99606.66;4932973;29;20520;-75
2023/09/16 16:15:52;;;;;;;5.72;2.40;;;;;;;32.39;36.26;99607.31;4933781;29;20052;-77
2023/09/16 16:18:22;;;;;;;3.17;2.88;;;;;;;32.25;35.88;99598.56;4936837;29;20059;-76
2023/09/16 16:20:49;;;;;;;2.60;2.40;;;;;;;32.10;36.62;99601.72;4936820;29;20055;-75
2023/09/16 16:23:15;;;;;;;3.15;2.75;;;;;;;31.95;36.86;99594.84;4936446;29;20140;-74
2023/09/16 16:25:43;;;;;;;3.50;3.05;;;;;;;31.81;37.31;99599.63;4936309;29;20669;-75
2023/09/16 16:28:11;;;;;;;2.88;2.65;;;;;;;31.67;37.47;99596.31;4936618;29;20123;-78
2023/09/16 16:30:39;;;;;;;4.25;3.13;;;;;;;31.56;38.20;99597.06;4936936;29;20146;-76
2023/09/16 16:33:05;;;;;;;2.70;2.50;;;;;;;31.42;38.42;99594.53;4936409;29;20058;-76
2023/09/16 16:35:32;;;;;;;3.17;2.80;;;;;;;31.31;39.07;99598.88;4936271;29;20063;-76
2023/09/16 16:37:59;;;;;;;3.05;2.75;;;;;;;31.20;39.67;99605.03;4936434;29;20063;-80
2023/09/16 16:40:25;;;;;;;3.72;2.78;;;;;;;31.10;39.69;99604.75;4936692;29;20048;-77
2023/09/16 16:42:52;;;;;;;5.68;3.10;;;;;;;30.97;39.89;99609.28;4936334;29;20067;-75
2023/09/16 16:45:19;;;;;;;3.40;3.10;;;;;;;30.86;39.58;99610.88;4936158;29;20064;-76
2023/09/16 16:47:47;;;;;;;3.20;3.00;;;;;;;30.74;40.42;99610.78;4936156;29;20160;-76
2023/09/16 16:50:16;;;;;;;3.00;2.78;;;;;;;30.65;40.00;99606.69;4936157;29;20500;-76
2023/09/16 16:52:44;;;;;;;3.50;3.08;;;;;;;30.52;40.21;99611.19;4935901;29;20689;-75
2023/09/16 16:55:10;;;;;;;4.32;2.65;;;;;;;30.41;40.06;99620.06;4936289;29;20077;-76
2023/09/16 16:57:37;;;;;;;3.63;3.33;;;;;;;30.30;40.51;99617.00;4935892;29;20408;-75